sensor_id;sensor_type;location;lat;lon;timestamp;pressure;altitude;pressure_sealevel;temperature;humidity
11017;BME280;54687;50.800;6.772;2022-11-14T00:02:19;61143.22;;;-144.06;58.97
11017;BME280;54687;50.800;6.772;2022-11-14T00:04:46;61176.75;;;-144.06;59.10
11017;BME280;54687;50.800;6.772;2022-11-14T00:07:13;61126.44;;;-144.06;59.46
11017;BME280;54687;50.800;6.772;2022-11-14T00:09:41;61122.25;;;-144.06;59.23
11017;BME280;54687;50.800;6.772;2022-11-14T00:12:08;61168.38;;;-144.06;59.27
11017;BME280;54687;50.800;6.772;2022-11-14T00:14:35;61168.38;;;-144.06;59.26
11017;BME280;54687;50.800;6.772;2022-11-14T00:17:02;61128.53;;;-144.06;59.18
11017;BME280;54687;50.800;6.772;2022-11-14T00:19:29;61153.69;;;-144.06;59.03
11017;BME280;54687;50.800;6.772;2022-11-14T00:21:56;61109.69;;;-144.06;59.11
11017;BME280;54687;50.800;6.772;2022-11-14T00:24:24;61145.31;;;-144.06;59.19
11017;BME280;54687;50.800;6.772;2022-11-14T00:26:53;61172.56;;;-144.06;59.33
11017;BME280;54687;50.800;6.772;2022-11-14T00:29:19;61157.91;;;-144.06;59.26
11017;BME280;54687;50.800;6.772;2022-11-14T00:31:46;61160.00;;;-144.06;59.67
11017;BME280;54687;50.800;6.772;2022-11-14T00:34:13;61122.25;;;-144.06;59.28
11017;BME280;54687;50.800;6.772;2022-11-14T00:36:40;61172.56;;;-144.06;59.42
11017;BME280;54687;50.800;6.772;2022-11-14T00:39:08;61109.69;;;-144.06;59.31
11017;BME280;54687;50.800;6.772;2022-11-14T00:41:37;61153.69;;;-144.06;59.52
11017;BME280;54687;50.800;6.772;2022-11-14T00:44:05;61122.25;;;-144.06;59.33
11017;BME280;54687;50.800;6.772;2022-11-14T00:46:32;61128.53;;;-144.06;59.62
11017;BME280;54687;50.800;6.772;2022-11-14T00:48:59;61082.44;;;-144.06;59.60
11017;BME280;54687;50.800;6.772;2022-11-14T00:51:26;61160.00;;;-144.06;59.55
11017;BME280;54687;50.800;6.772;2022-11-14T00:53:52;61160.00;;;-144.06;59.60
11017;BME280;54687;50.800;6.772;2022-11-14T00:56:19;61130.66;;;-144.06;59.54
11017;BME280;54687;50.800;6.772;2022-11-14T00:58:45;61164.19;;;-144.06;59.71
11017;BME280;54687;50.800;6.772;2022-11-14T01:01:14;61160.00;;;-144.06;59.89
11017;BME280;54687;50.800;6.772;2022-11-14T01:03:40;61155.81;;;-144.06;59.34
11017;BME280;54687;50.800;6.772;2022-11-14T01:06:09;61143.22;;;-144.06;59.57
11017;BME280;54687;50.800;6.772;2022-11-14T01:08:36;61147.41;;;-144.06;59.65
11017;BME280;54687;50.800;6.772;2022-11-14T01:11:08;61151.59;;;-144.06;59.81
11017;BME280;54687;50.800;6.772;2022-11-14T01:13:35;61080.34;;;-144.06;60.02
11017;BME280;54687;50.800;6.772;2022-11-14T01:16:02;61187.25;;;-144.06;60.17
11017;BME280;54687;50.800;6.772;2022-11-14T01:18:30;61176.75;;;-144.06;60.22
11017;BME280;54687;50.800;6.772;2022-11-14T01:20:57;61143.22;;;-144.06;60.01
11017;BME280;54687;50.800;6.772;2022-11-14T01:23:24;61168.38;;;-144.06;59.94
11017;BME280;54687;50.800;6.772;2022-11-14T01:25:52;61145.31;;;-144.06;59.63
11017;BME280;54687;50.800;6.772;2022-11-14T01:28:18;61145.31;;;-144.06;59.88
11017;BME280;54687;50.800;6.772;2022-11-14T01:30:45;61155.81;;;-144.06;60.26
11017;BME280;54687;50.800;6.772;2022-11-14T01:33:12;61136.94;;;-144.06;60.41
11017;BME280;54687;50.800;6.772;2022-11-14T01:35:40;61113.88;;;-144.06;60.30
11017;BME280;54687;50.800;6.772;2022-11-14T01:38:11;61151.59;;;-144.06;60.53
11017;BME280;54687;50.800;6.772;2022-11-14T01:40:40;61160.00;;;-144.06;60.53
11017;BME280;54687;50.800;6.772;2022-11-14T01:43:26;61141.13;;;-144.06;60.38
11017;BME280;54687;50.800;6.772;2022-11-14T01:45:56;61160.00;;;-144.06;60.41
11017;BME280;54687;50.800;6.772;2022-11-14T01:48:27;61174.66;;;-144.06;60.26
11017;BME280;54687;50.800;6.772;2022-11-14T01:51:00;61092.91;;;-144.06;60.33
11017;BME280;54687;50.800;6.772;2022-11-14T01:53:27;61149.50;;;-144.06;60.30
11017;BME280;54687;50.800;6.772;2022-11-14T01:55:57;61130.66;;;-144.06;60.23
11017;BME280;54687;50.800;6.772;2022-11-14T01:58:25;61155.81;;;-144.06;60.28
11017;BME280;54687;50.800;6.772;2022-11-14T02:00:53;61166.28;;;-144.06;60.48
11017;BME280;54687;50.800;6.772;2022-11-14T02:03:20;61128.53;;;-144.06;60.74
11017;BME280;54687;50.800;6.772;2022-11-14T02:05:47;61136.94;;;-144.06;60.77
11017;BME280;54687;50.800;6.772;2022-11-14T02:08:17;61132.75;;;-144.06;60.42
11017;BME280;54687;50.800;6.772;2022-11-14T02:10:44;61145.31;;;-144.06;59.95
11017;BME280;54687;50.800;6.772;2022-11-14T02:13:10;61134.84;;;-144.06;60.36
11017;BME280;54687;50.800;6.772;2022-11-14T02:15:37;61132.75;;;-144.06;60.33
11017;BME280;54687;50.800;6.772;2022-11-14T02:18:04;61172.56;;;-144.06;60.63
11017;BME280;54687;50.800;6.772;2022-11-14T02:20:35;61118.06;;;-144.06;60.67
11017;BME280;54687;50.800;6.772;2022-11-14T02:23:03;61134.84;;;-144.06;60.94
11017;BME280;54687;50.800;6.772;2022-11-14T02:25:29;61185.16;;;-144.06;60.84
11017;BME280;54687;50.800;6.772;2022-11-14T02:27:57;61166.28;;;-144.06;61.52
11017;BME280;54687;50.800;6.772;2022-11-14T02:30:25;61155.81;;;-144.06;61.10
11017;BME280;54687;50.800;6.772;2022-11-14T02:32:52;61130.66;;;-144.06;61.07
11017;BME280;54687;50.800;6.772;2022-11-14T02:35:19;61136.94;;;-144.06;61.26
11017;BME280;54687;50.800;6.772;2022-11-14T02:37:47;61126.44;;;-144.06;61.05
11017;BME280;54687;50.800;6.772;2022-11-14T02:40:13;61164.19;;;-144.06;60.99
11017;BME280;54687;50.800;6.772;2022-11-14T02:42:40;61139.03;;;-144.06;60.87
11017;BME280;54687;50.800;6.772;2022-11-14T02:45:08;61141.13;;;-144.06;61.08
11017;BME280;54687;50.800;6.772;2022-11-14T02:47:35;61164.19;;;-144.06;60.91
11017;BME280;54687;50.800;6.772;2022-11-14T02:50:02;61160.00;;;-144.06;61.77
11017;BME280;54687;50.800;6.772;2022-11-14T02:52:29;61134.84;;;-144.06;61.36
11017;BME280;54687;50.800;6.772;2022-11-14T02:54:58;61122.25;;;-144.06;61.31
11017;BME280;54687;50.800;6.772;2022-11-14T02:57:24;61107.59;;;-144.06;61.63
11017;BME280;54687;50.800;6.772;2022-11-14T02:59:51;61141.13;;;-144.06;60.95
11017;BME280;54687;50.800;6.772;2022-11-14T03:02:18;61206.09;;;-144.06;60.87
11017;BME280;54687;50.800;6.772;2022-11-14T03:04:44;61147.41;;;-144.06;61.55
11017;BME280;54687;50.800;6.772;2022-11-14T03:07:11;61122.25;;;-144.06;61.85
11017;BME280;54687;50.800;6.772;2022-11-14T03:09:38;61155.81;;;-144.06;61.83
11017;BME280;54687;50.800;6.772;2022-11-14T03:12:06;61176.75;;;-144.06;61.94
11017;BME280;54687;50.800;6.772;2022-11-14T03:14:33;61151.59;;;-144.06;62.00
11017;BME280;54687;50.800;6.772;2022-11-14T03:17:00;61132.75;;;-144.06;61.81
11017;BME280;54687;50.800;6.772;2022-11-14T03:19:26;61160.00;;;-144.06;61.68
11017;BME280;54687;50.800;6.772;2022-11-14T03:21:53;61164.19;;;-144.06;61.63
11017;BME280;54687;50.800;6.772;2022-11-14T03:24:20;61130.66;;;-144.06;61.71
11017;BME280;54687;50.800;6.772;2022-11-14T03:26:46;61160.00;;;-144.06;61.39
11017;BME280;54687;50.800;6.772;2022-11-14T03:29:14;61132.75;;;-144.06;61.45
11017;BME280;54687;50.800;6.772;2022-11-14T03:31:41;61147.41;;;-144.06;61.46
11017;BME280;54687;50.800;6.772;2022-11-14T03:34:08;61136.94;;;-144.06;61.49
11017;BME280;54687;50.800;6.772;2022-11-14T03:36:35;61145.31;;;-144.06;61.96
11017;BME280;54687;50.800;6.772;2022-11-14T03:39:03;61149.50;;;-144.06;62.13
11017;BME280;54687;50.800;6.772;2022-11-14T03:41:30;61168.38;;;-144.06;62.29
11017;BME280;54687;50.800;6.772;2022-11-14T03:43:56;61164.19;;;-144.06;62.25
11017;BME280;54687;50.800;6.772;2022-11-14T03:46:24;61147.41;;;-144.06;62.49
11017;BME280;54687;50.800;6.772;2022-11-14T03:48:51;61185.16;;;-144.06;62.11
11017;BME280;54687;50.800;6.772;2022-11-14T03:51:18;61160.00;;;-144.06;62.34
11017;BME280;54687;50.800;6.772;2022-11-14T03:53:44;61132.75;;;-144.06;62.42
11017;BME280;54687;50.800;6.772;2022-11-14T03:56:11;61151.59;;;-144.06;62.07
11017;BME280;54687;50.800;6.772;2022-11-14T03:58:37;61153.69;;;-144.06;62.66
11017;BME280;54687;50.800;6.772;2022-11-14T04:01:04;61155.81;;;-144.06;62.77
11017;BME280;54687;50.800;6.772;2022-11-14T04:03:32;61151.59;;;-144.06;63.26
11017;BME280;54687;50.800;6.772;2022-11-14T04:05:59;61134.84;;;-144.06;63.04
11017;BME280;54687;50.800;6.772;2022-11-14T04:08:26;61172.56;;;-144.06;62.95
11017;BME280;54687;50.800;6.772;2022-11-14T04:10:52;61162.09;;;-144.06;63.30
11017;BME280;54687;50.800;6.772;2022-11-14T04:13:19;61164.19;;;-144.06;62.78
11017;BME280;54687;50.800;6.772;2022-11-14T04:15:46;61147.41;;;-144.06;63.00
11017;BME280;54687;50.800;6.772;2022-11-14T04:18:12;61139.03;;;-144.06;62.79
11017;BME280;54687;50.800;6.772;2022-11-14T04:20:41;61201.91;;;-144.06;62.69
11017;BME280;54687;50.800;6.772;2022-11-14T04:23:07;61126.44;;;-144.06;62.52
11017;BME280;54687;50.800;6.772;2022-11-14T04:25:34;61185.16;;;-144.06;62.59
11017;BME280;54687;50.800;6.772;2022-11-14T04:28:01;61185.16;;;-144.06;62.67
11017;BME280;54687;50.800;6.772;2022-11-14T04:30:27;61145.31;;;-144.06;63.20
11017;BME280;54687;50.800;6.772;2022-11-14T04:32:54;61143.22;;;-144.06;63.15
11017;BME280;54687;50.800;6.772;2022-11-14T04:35:21;61157.91;;;-144.06;63.09
11017;BME280;54687;50.800;6.772;2022-11-14T04:37:49;61176.75;;;-144.06;62.69
11017;BME280;54687;50.800;6.772;2022-11-14T04:40:16;61180.97;;;-144.06;63.48
11017;BME280;54687;50.800;6.772;2022-11-14T04:42:42;61122.25;;;-144.06;63.15
11017;BME280;54687;50.800;6.772;2022-11-14T04:45:09;61132.75;;;-144.06;63.01
11017;BME280;54687;50.800;6.772;2022-11-14T04:47:36;61136.94;;;-144.06;63.42
11017;BME280;54687;50.800;6.772;2022-11-14T04:50:04;61168.38;;;-144.06;63.58
11017;BME280;54687;50.800;6.772;2022-11-14T04:52:30;61195.63;;;-144.06;63.64
11017;BME280;54687;50.800;6.772;2022-11-14T04:54:59;61160.00;;;-144.06;63.52
11017;BME280;54687;50.800;6.772;2022-11-14T04:57:26;61155.81;;;-144.06;63.71
11017;BME280;54687;50.800;6.772;2022-11-14T04:59:52;61157.91;;;-144.06;64.06
11017;BME280;54687;50.800;6.772;2022-11-14T05:02:19;61105.50;;;-144.06;64.26
11017;BME280;54687;50.800;6.772;2022-11-14T05:04:45;61151.59;;;-144.06;64.05
11017;BME280;54687;50.800;6.772;2022-11-14T05:07:13;61139.03;;;-144.06;64.32
11017;BME280;54687;50.800;6.772;2022-11-14T05:09:40;61143.22;;;-144.06;64.43
11017;BME280;54687;50.800;6.772;2022-11-14T05:12:08;61130.66;;;-144.06;64.29
11017;BME280;54687;50.800;6.772;2022-11-14T05:14:34;61157.91;;;-144.06;64.58
11017;BME280;54687;50.800;6.772;2022-11-14T05:17:01;61128.53;;;-144.06;64.90
11017;BME280;54687;50.800;6.772;2022-11-14T05:19:27;61176.75;;;-144.06;64.75
11017;BME280;54687;50.800;6.772;2022-11-14T05:21:55;61118.06;;;-144.06;64.35
11017;BME280;54687;50.800;6.772;2022-11-14T05:24:21;61139.03;;;-144.06;64.94
11017;BME280;54687;50.800;6.772;2022-11-14T05:26:48;61147.41;;;-144.06;64.49
11017;BME280;54687;50.800;6.772;2022-11-14T05:29:16;61147.41;;;-144.06;64.77
11017;BME280;54687;50.800;6.772;2022-11-14T05:31:43;61151.59;;;-144.06;65.30
11017;BME280;54687;50.800;6.772;2022-11-14T05:36:50;61139.03;;;-144.06;66.40
11017;BME280;54687;50.800;6.772;2022-11-14T05:39:17;61168.38;;;-144.06;66.46
11017;BME280;54687;50.800;6.772;2022-11-14T05:41:43;61157.91;;;-144.06;66.89
11017;BME280;54687;50.800;6.772;2022-11-14T05:44:10;61143.22;;;-144.06;66.73
11017;BME280;54687;50.800;6.772;2022-11-14T05:46:38;61141.13;;;-144.06;66.88
11017;BME280;54687;50.800;6.772;2022-11-14T05:49:05;61153.69;;;-144.06;66.53
11017;BME280;54687;50.800;6.772;2022-11-14T05:51:32;61107.59;;;-144.06;66.98
11017;BME280;54687;50.800;6.772;2022-11-14T05:53:58;61172.56;;;-144.06;66.62
11017;BME280;54687;50.800;6.772;2022-11-14T05:56:25;61103.38;;;-144.06;66.72
11017;BME280;54687;50.800;6.772;2022-11-14T05:58:51;61164.19;;;-144.06;66.74
11017;BME280;54687;50.800;6.772;2022-11-14T06:01:18;61185.16;;;-144.06;66.58
11017;BME280;54687;50.800;6.772;2022-11-14T06:03:47;61143.22;;;-144.06;66.51
11017;BME280;54687;50.800;6.772;2022-11-14T06:06:15;61157.91;;;-144.06;66.50
11017;BME280;54687;50.800;6.772;2022-11-14T06:08:42;61143.22;;;-144.06;66.55
11017;BME280;54687;50.800;6.772;2022-11-14T06:11:11;61113.88;;;-144.06;66.96
11017;BME280;54687;50.800;6.772;2022-11-14T06:13:39;61160.00;;;-144.06;67.06
11017;BME280;54687;50.800;6.772;2022-11-14T06:16:08;61174.66;;;-144.06;67.15
11017;BME280;54687;50.800;6.772;2022-11-14T06:18:35;61168.38;;;-144.06;67.45
11017;BME280;54687;50.800;6.772;2022-11-14T06:21:06;61136.94;;;-144.06;67.27
11017;BME280;54687;50.800;6.772;2022-11-14T06:23:33;61147.41;;;-144.06;67.22
11017;BME280;54687;50.800;6.772;2022-11-14T06:26:00;61153.69;;;-144.06;67.19
11017;BME280;54687;50.800;6.772;2022-11-14T06:28:27;61151.59;;;-144.06;67.62
11017;BME280;54687;50.800;6.772;2022-11-14T06:30:56;61143.22;;;-144.06;67.68
11017;BME280;54687;50.800;6.772;2022-11-14T06:33:24;61111.78;;;-144.06;67.96
11017;BME280;54687;50.800;6.772;2022-11-14T06:35:56;61172.56;;;-144.06;68.15
11017;BME280;54687;50.800;6.772;2022-11-14T06:38:24;61172.56;;;-144.06;68.35
11017;BME280;54687;50.800;6.772;2022-11-14T06:40:51;61151.59;;;-144.06;68.55
11017;BME280;54687;50.800;6.772;2022-11-14T06:43:17;61107.59;;;-144.06;68.41
11017;BME280;54687;50.800;6.772;2022-11-14T06:45:44;61149.50;;;-144.06;68.42
11017;BME280;54687;50.800;6.772;2022-11-14T06:48:11;61147.41;;;-144.06;69.11
11017;BME280;54687;50.800;6.772;2022-11-14T06:50:37;61153.69;;;-144.06;68.91
11017;BME280;54687;50.800;6.772;2022-11-14T06:53:04;61151.59;;;-144.06;69.16
11017;BME280;54687;50.800;6.772;2022-11-14T06:55:32;61166.28;;;-144.06;68.87
11017;BME280;54687;50.800;6.772;2022-11-14T06:57:58;61172.56;;;-144.06;69.36
11017;BME280;54687;50.800;6.772;2022-11-14T07:00:25;61176.75;;;-144.06;69.46
11017;BME280;54687;50.800;6.772;2022-11-14T07:02:51;61124.34;;;-144.06;69.20
11017;BME280;54687;50.800;6.772;2022-11-14T07:05:18;61139.03;;;-144.06;69.38
11017;BME280;54687;50.800;6.772;2022-11-14T07:07:44;61164.19;;;-144.06;69.68
11017;BME280;54687;50.800;6.772;2022-11-14T07:10:11;61143.22;;;-144.06;69.63
11017;BME280;54687;50.800;6.772;2022-11-14T07:12:39;61151.59;;;-144.06;69.18
11017;BME280;54687;50.800;6.772;2022-11-14T07:15:07;61143.22;;;-144.06;68.87
11017;BME280;54687;50.800;6.772;2022-11-14T07:17:34;61130.66;;;-144.06;68.85
11017;BME280;54687;50.800;6.772;2022-11-14T07:20:01;61180.97;;;-144.06;68.43
11017;BME280;54687;50.800;6.772;2022-11-14T07:22:27;61120.16;;;-144.06;68.08
11017;BME280;54687;50.800;6.772;2022-11-14T07:24:54;61143.22;;;-144.06;67.37
11017;BME280;54687;50.800;6.772;2022-11-14T07:27:21;61139.03;;;-144.06;67.24
11017;BME280;54687;50.800;6.772;2022-11-14T07:29:49;61126.44;;;-144.06;67.09
11017;BME280;54687;50.800;6.772;2022-11-14T07:32:15;61180.97;;;-144.06;66.73
11017;BME280;54687;50.800;6.772;2022-11-14T07:34:42;61145.31;;;-144.06;66.54
11017;BME280;54687;50.800;6.772;2022-11-14T07:37:09;61149.50;;;-144.06;66.15
11017;BME280;54687;50.800;6.772;2022-11-14T07:39:36;61162.09;;;-144.06;65.86
11017;BME280;54687;50.800;6.772;2022-11-14T07:42:02;61130.66;;;-144.06;65.61
11017;BME280;54687;50.800;6.772;2022-11-14T07:44:29;61153.69;;;-144.06;65.39
11017;BME280;54687;50.800;6.772;2022-11-14T07:46:57;61160.00;;;-144.06;65.22
11017;BME280;54687;50.800;6.772;2022-11-14T07:49:24;61126.44;;;-144.06;65.02
11017;BME280;54687;50.800;6.772;2022-11-14T07:51:50;61149.50;;;-144.06;64.89
11017;BME280;54687;50.800;6.772;2022-11-14T07:54:17;61134.84;;;-144.06;64.84
11017;BME280;54687;50.800;6.772;2022-11-14T07:56:44;61139.03;;;-144.06;64.58
11017;BME280;54687;50.800;6.772;2022-11-14T07:59:10;61151.59;;;-144.06;64.43
11017;BME280;54687;50.800;6.772;2022-11-14T08:01:37;61122.25;;;-144.06;64.57
11017;BME280;54687;50.800;6.772;2022-11-14T08:04:05;61149.50;;;-144.06;64.62
11017;BME280;54687;50.800;6.772;2022-11-14T08:06:32;61160.00;;;-144.06;64.33
11017;BME280;54687;50.800;6.772;2022-11-14T08:08:58;61147.41;;;-144.06;64.04
11017;BME280;54687;50.800;6.772;2022-11-14T08:11:25;61084.53;;;-144.06;63.82
11017;BME280;54687;50.800;6.772;2022-11-14T08:14:09;61143.22;;;-144.06;63.83
11017;BME280;54687;50.800;6.772;2022-11-14T08:16:36;61126.44;;;-144.06;63.72
11017;BME280;54687;50.800;6.772;2022-11-14T08:19:04;61172.56;;;-144.06;63.49
11017;BME280;54687;50.800;6.772;2022-11-14T08:21:31;61134.84;;;-144.06;63.43
11017;BME280;54687;50.800;6.772;2022-11-14T08:23:58;61147.41;;;-144.06;63.27
11017;BME280;54687;50.800;6.772;2022-11-14T08:26:25;61107.59;;;-144.06;63.07
11017;BME280;54687;50.800;6.772;2022-11-14T08:28:52;61136.94;;;-144.06;63.07
11017;BME280;54687;50.800;6.772;2022-11-14T08:31:19;61128.53;;;-144.06;62.76
11017;BME280;54687;50.800;6.772;2022-11-14T08:33:46;61095.00;;;-144.06;62.41
11017;BME280;54687;50.800;6.772;2022-11-14T08:36:16;61180.97;;;-144.06;62.36
11017;BME280;54687;50.800;6.772;2022-11-14T08:38:42;61130.66;;;-144.06;62.17
11017;BME280;54687;50.800;6.772;2022-11-14T08:41:10;61151.59;;;-144.06;61.99
11017;BME280;54687;50.800;6.772;2022-11-14T08:43:37;61155.81;;;-144.06;61.75
11017;BME280;54687;50.800;6.772;2022-11-14T08:46:04;61132.75;;;-144.06;61.84
11017;BME280;54687;50.800;6.772;2022-11-14T08:48:31;61128.53;;;-144.06;61.50
11017;BME280;54687;50.800;6.772;2022-11-14T08:51:01;61136.94;;;-144.06;61.60
11017;BME280;54687;50.800;6.772;2022-11-14T08:53:30;61143.22;;;-144.06;61.47
11017;BME280;54687;50.800;6.772;2022-11-14T08:55:57;61120.16;;;-144.06;61.39
11017;BME280;54687;50.800;6.772;2022-11-14T08:58:26;61168.38;;;-144.06;61.13
11017;BME280;54687;50.800;6.772;2022-11-14T09:00:53;61055.19;;;-144.06;61.24
11017;BME280;54687;50.800;6.772;2022-11-14T09:03:19;61122.25;;;-144.06;61.12
11017;BME280;54687;50.800;6.772;2022-11-14T09:05:50;61109.69;;;-144.06;61.00
11017;BME280;54687;50.800;6.772;2022-11-14T09:08:17;61128.53;;;-144.06;60.85
11017;BME280;54687;50.800;6.772;2022-11-14T09:10:45;61109.69;;;-144.06;60.68
11017;BME280;54687;50.800;6.772;2022-11-14T09:13:12;61090.81;;;-144.06;60.63
11017;BME280;54687;50.800;6.772;2022-11-14T09:15:38;61088.72;;;-144.06;60.82
11017;BME280;54687;50.800;6.772;2022-11-14T09:18:05;61084.53;;;-144.06;60.74
11017;BME280;54687;50.800;6.772;2022-11-14T09:20:32;61126.44;;;-144.06;60.64
11017;BME280;54687;50.800;6.772;2022-11-14T09:22:59;61134.84;;;-144.06;60.60
11017;BME280;54687;50.800;6.772;2022-11-14T09:25:26;61130.66;;;-144.06;60.66
11017;BME280;54687;50.800;6.772;2022-11-14T09:27:55;61092.91;;;-144.06;60.38
11017;BME280;54687;50.800;6.772;2022-11-14T09:30:22;61109.69;;;-144.06;59.94
11017;BME280;54687;50.800;6.772;2022-11-14T09:32:49;61078.25;;;-144.06;59.70
11017;BME280;54687;50.800;6.772;2022-11-14T09:35:19;61084.53;;;-144.06;59.42
11017;BME280;54687;50.800;6.772;2022-11-14T09:37:45;61149.50;;;-144.06;58.97
11017;BME280;54687;50.800;6.772;2022-11-14T09:40:12;61105.50;;;-144.06;58.69
11017;BME280;54687;50.800;6.772;2022-11-14T09:42:57;61126.44;;;-144.06;58.29
11017;BME280;54687;50.800;6.772;2022-11-14T09:45:26;61105.50;;;-144.06;58.52
11017;BME280;54687;50.800;6.772;2022-11-14T09:47:55;61109.69;;;-144.06;58.98
11017;BME280;54687;50.800;6.772;2022-11-14T09:50:29;61092.91;;;-144.06;58.56
11017;BME280;54687;50.800;6.772;2022-11-14T09:53:02;61086.63;;;-144.06;58.54
11017;BME280;54687;50.800;6.772;2022-11-14T09:55:31;61109.69;;;-144.06;58.27
11017;BME280;54687;50.800;6.772;2022-11-14T09:58:02;61088.72;;;-144.06;58.20
11017;BME280;54687;50.800;6.772;2022-11-14T10:00:38;61132.75;;;-144.06;57.48
11017;BME280;54687;50.800;6.772;2022-11-14T10:03:15;61076.13;;;-144.06;57.22
11017;BME280;54687;50.800;6.772;2022-11-14T10:05:57;61105.50;;;-144.06;57.08
11017;BME280;54687;50.800;6.772;2022-11-14T10:08:46;61101.28;;;-144.06;56.97
11017;BME280;54687;50.800;6.772;2022-11-14T10:11:21;61126.44;;;-144.06;56.81
11017;BME280;54687;50.800;6.772;2022-11-14T10:14:14;61092.91;;;-144.06;56.68
11017;BME280;54687;50.800;6.772;2022-11-14T10:16:52;61124.34;;;-144.06;56.60
11017;BME280;54687;50.800;6.772;2022-11-14T10:19:28;61080.34;;;-144.06;56.53
11017;BME280;54687;50.800;6.772;2022-11-14T10:22:10;61097.09;;;-144.06;56.56
11017;BME280;54687;50.800;6.772;2022-11-14T10:25:02;61128.53;;;-144.06;56.04
11017;BME280;54687;50.800;6.772;2022-11-14T10:27:42;61078.25;;;-144.06;56.16
11017;BME280;54687;50.800;6.772;2022-11-14T10:30:14;61084.53;;;-144.06;56.18
11017;BME280;54687;50.800;6.772;2022-11-14T10:32:57;61105.50;;;-144.06;55.75
11017;BME280;54687;50.800;6.772;2022-11-14T10:35:32;61076.13;;;-144.06;55.68
11017;BME280;54687;50.800;6.772;2022-11-14T10:38:04;61063.56;;;-144.06;55.45
11017;BME280;54687;50.800;6.772;2022-11-14T10:40:38;61071.94;;;-144.06;55.64
11017;BME280;54687;50.800;6.772;2022-11-14T10:43:15;61067.75;;;-144.06;55.62
11017;BME280;54687;50.800;6.772;2022-11-14T10:45:49;61051.00;;;-144.06;55.22
11017;BME280;54687;50.800;6.772;2022-11-14T10:48:27;61105.50;;;-144.06;55.22
11017;BME280;54687;50.800;6.772;2022-11-14T10:50:58;61092.91;;;-144.06;54.96
11017;BME280;54687;50.800;6.772;2022-11-14T10:53:30;61061.47;;;-144.06;54.81
11017;BME280;54687;50.800;6.772;2022-11-14T10:56:00;61101.28;;;-144.06;54.78
11017;BME280;54687;50.800;6.772;2022-11-14T10:58:27;61051.00;;;-144.06;54.74
11017;BME280;54687;50.800;6.772;2022-11-14T11:00:57;61069.84;;;-144.06;54.45
11017;BME280;54687;50.800;6.772;2022-11-14T11:03:45;61071.94;;;-144.06;54.13
11017;BME280;54687;50.800;6.772;2022-11-14T11:06:24;61080.34;;;-144.06;53.86
11017;BME280;54687;50.800;6.772;2022-11-14T11:08:51;61076.13;;;-144.06;53.85
11017;BME280;54687;50.800;6.772;2022-11-14T11:11:38;61040.50;;;-144.06;53.36
11017;BME280;54687;50.800;6.772;2022-11-14T11:14:15;61055.19;;;-144.06;53.13
11017;BME280;54687;50.800;6.772;2022-11-14T11:16:45;61082.44;;;-144.06;53.14
11017;BME280;54687;50.800;6.772;2022-11-14T11:19:17;61076.13;;;-144.06;52.66
11017;BME280;54687;50.800;6.772;2022-11-14T11:21:49;61059.38;;;-144.06;52.94
11017;BME280;54687;50.800;6.772;2022-11-14T11:24:30;61046.78;;;-144.06;52.84
11017;BME280;54687;50.800;6.772;2022-11-14T11:27:19;61057.28;;;-144.06;52.82
11017;BME280;54687;50.800;6.772;2022-11-14T11:30:00;61048.88;;;-144.06;52.78
11017;BME280;54687;50.800;6.772;2022-11-14T11:32:28;61036.31;;;-144.06;53.00
11017;BME280;54687;50.800;6.772;2022-11-14T11:37:32;61055.19;;;-144.06;53.05
11017;BME280;54687;50.800;6.772;2022-11-14T11:40:15;61053.09;;;-144.06;53.24
11017;BME280;54687;50.800;6.772;2022-11-14T11:42:46;61088.72;;;-144.06;53.44
11017;BME280;54687;50.800;6.772;2022-11-14T11:45:17;61061.47;;;-144.06;53.54
11017;BME280;54687;50.800;6.772;2022-11-14T11:47:49;61038.41;;;-144.06;53.88
11017;BME280;54687;50.800;6.772;2022-11-14T11:50:19;61051.00;;;-144.06;53.97
11017;BME280;54687;50.800;6.772;2022-11-14T11:52:50;61030.03;;;-144.06;54.26
11017;BME280;54687;50.800;6.772;2022-11-14T11:55:24;61053.09;;;-144.06;54.12
11017;BME280;54687;50.800;6.772;2022-11-14T11:57:59;61044.69;;;-144.06;54.14
11017;BME280;54687;50.800;6.772;2022-11-14T12:00:27;61113.88;;;-144.06;54.10
11017;BME280;54687;50.800;6.772;2022-11-14T12:02:55;61030.03;;;-144.06;54.36
11017;BME280;54687;50.800;6.772;2022-11-14T12:05:26;61065.66;;;-144.06;54.42
11017;BME280;54687;50.800;6.772;2022-11-14T12:07:59;61055.19;;;-144.06;54.42
11017;BME280;54687;50.800;6.772;2022-11-14T12:10:32;61046.78;;;-144.06;54.54
11017;BME280;54687;50.800;6.772;2022-11-14T12:13:25;61063.56;;;-144.06;54.89
11017;BME280;54687;50.800;6.772;2022-11-14T12:16:05;61053.09;;;-144.06;54.69
11017;BME280;54687;50.800;6.772;2022-11-14T12:24:47;61040.50;;;-144.06;55.29
11017;BME280;54687;50.800;6.772;2022-11-14T12:27:44;61038.41;;;-144.06;55.23
11017;BME280;54687;50.800;6.772;2022-11-14T12:30:17;61076.13;;;-144.06;55.19
11017;BME280;54687;50.800;6.772;2022-11-14T12:32:49;61101.28;;;-144.06;55.24
11017;BME280;54687;50.800;6.772;2022-11-14T12:35:20;61095.00;;;-144.06;55.63
11017;BME280;54687;50.800;6.772;2022-11-14T12:37:49;61084.53;;;-144.06;55.58
11017;BME280;54687;50.800;6.772;2022-11-14T12:40:24;61076.13;;;-144.06;55.87
11017;BME280;54687;50.800;6.772;2022-11-14T12:42:53;61074.03;;;-144.06;55.75
11017;BME280;54687;50.800;6.772;2022-11-14T12:48:34;61067.75;;;-144.06;55.88
11017;BME280;54687;50.800;6.772;2022-11-14T12:51:03;61078.25;;;-144.06;56.12
11017;BME280;54687;50.800;6.772;2022-11-14T12:53:38;61076.13;;;-144.06;55.98
11017;BME280;54687;50.800;6.772;2022-11-14T12:56:22;61063.56;;;-144.06;56.15
11017;BME280;54687;50.800;6.772;2022-11-14T13:02:20;61057.28;;;-144.06;55.85
11017;BME280;54687;50.800;6.772;2022-11-14T13:05:04;61051.00;;;-144.06;56.14
11017;BME280;54687;50.800;6.772;2022-11-14T13:07:44;61086.63;;;-144.06;56.18
11017;BME280;54687;50.800;6.772;2022-11-14T13:10:15;61088.72;;;-144.06;56.43